createdAt,value
2024-01-09T00:00:29.711Z,15.50
2024-01-09T00:05:32.135Z,15.40
2024-01-09T00:10:34.039Z,15.40
2024-01-09T00:15:35.905Z,15.30
2024-01-09T00:20:37.741Z,15.30
2024-01-09T00:25:39.560Z,15.30
2024-01-09T00:30:41.738Z,15.20
2024-01-09T00:35:44.056Z,15.20
2024-01-09T00:40:46.292Z,15.10
2024-01-09T00:45:48.082Z,15.10
2024-01-09T00:50:50.044Z,15.10
2024-01-09T00:55:52.176Z,15.10
2024-01-09T01:00:53.987Z,15.00
2024-01-09T01:05:55.901Z,15.00
2024-01-09T01:10:57.644Z,15.00
2024-01-09T01:15:59.520Z,14.90
2024-01-09T01:21:01.312Z,14.90
2024-01-09T01:26:03.325Z,14.90
2024-01-09T01:31:05.318Z,14.90
2024-01-09T01:36:07.171Z,14.90
2024-01-09T01:41:09.032Z,14.80
2024-01-09T01:46:11.082Z,14.80
2024-01-09T01:51:13.173Z,14.80
2024-01-09T01:56:15.201Z,14.80
2024-01-09T02:01:17.777Z,14.70
2024-01-09T02:06:19.690Z,14.70
2024-01-09T02:11:22.328Z,14.70
2024-01-09T02:16:24.184Z,14.70
2024-01-09T02:21:25.928Z,14.70
2024-01-09T02:26:46.306Z,14.60
2024-01-09T02:31:55.288Z,14.60
2024-01-09T02:36:57.138Z,14.60
2024-01-09T02:41:58.950Z,14.60
2024-01-09T02:47:01.015Z,14.60
2024-01-09T02:52:03.443Z,14.60
2024-01-09T02:57:05.402Z,14.60
2024-01-09T03:02:07.295Z,14.50
2024-01-09T03:07:09.336Z,14.50
2024-01-09T03:12:11.251Z,14.50
2024-01-09T03:17:13.131Z,14.50
2024-01-09T03:22:14.980Z,14.50
2024-01-09T03:27:16.788Z,14.50
2024-01-09T03:32:18.548Z,14.40
2024-01-09T03:37:20.346Z,14.40
2024-01-09T03:42:22.053Z,14.40
2024-01-09T03:47:23.860Z,14.40
2024-01-09T03:52:26.262Z,14.40
2024-01-09T03:57:28.052Z,14.40
2024-01-09T04:02:29.857Z,14.30
2024-01-09T04:07:31.862Z,14.30
2024-01-09T04:12:34.045Z,14.40
2024-01-09T04:17:35.910Z,14.50
2024-01-09T04:22:37.792Z,14.50
2024-01-09T04:27:39.658Z,14.50
2024-01-09T04:32:41.769Z,14.60
2024-01-09T04:37:43.734Z,14.60
2024-01-09T04:42:45.637Z,14.60
2024-01-09T04:47:47.667Z,14.60
2024-01-09T04:52:49.580Z,14.60
2024-01-09T04:57:51.300Z,14.60
2024-01-09T05:02:54.484Z,14.50
2024-01-09T05:07:56.562Z,14.50
2024-01-09T05:12:59.151Z,14.50
2024-01-09T05:18:02.355Z,14.60
2024-01-09T05:23:04.539Z,14.60
2024-01-09T05:28:06.503Z,14.70
2024-01-09T05:33:08.433Z,14.70
2024-01-09T05:38:18.097Z,14.70
2024-01-09T05:43:21.051Z,14.70
2024-01-09T05:48:23.110Z,14.80
2024-01-09T05:53:25.046Z,14.80
2024-01-09T05:58:26.844Z,14.90
2024-01-09T06:03:28.702Z,14.80
2024-01-09T06:08:30.526Z,14.80
2024-01-09T06:13:32.618Z,14.90
2024-01-09T06:18:34.896Z,14.80
2024-01-09T06:23:36.797Z,14.90
2024-01-09T06:28:38.562Z,14.90
2024-01-09T06:33:40.422Z,14.90
2024-01-09T06:38:42.680Z,14.90
2024-01-09T06:43:45.190Z,14.90
2024-01-09T06:48:47.139Z,14.90
2024-01-09T06:53:49.124Z,14.90
2024-01-09T06:58:53.188Z,14.90
2024-01-09T07:03:55.904Z,14.90
2024-01-09T07:08:58.022Z,15.00
2024-01-09T07:13:59.825Z,14.90
2024-01-09T07:19:02.072Z,15.00
2024-01-09T07:24:04.160Z,14.90
2024-01-09T07:29:06.189Z,15.00
2024-01-09T07:34:08.081Z,15.00
2024-01-09T07:39:11.078Z,15.00
2024-01-09T07:44:13.241Z,15.00
2024-01-09T07:49:15.108Z,15.00
2024-01-09T07:54:16.891Z,15.10
2024-01-09T07:59:18.730Z,15.00
2024-01-09T08:04:20.535Z,15.10
2024-01-09T08:09:22.420Z,15.10
2024-01-09T08:14:24.337Z,15.10
2024-01-09T08:19:26.138Z,15.10
2024-01-09T08:24:27.973Z,15.10
2024-01-09T08:29:29.757Z,15.20
2024-01-09T08:34:31.705Z,15.20
2024-01-09T08:39:33.576Z,15.20
2024-01-09T08:44:35.499Z,15.20
2024-01-09T08:49:37.571Z,15.20
2024-01-09T08:54:39.436Z,15.20
2024-01-09T08:59:41.243Z,15.20
2024-01-09T09:04:43.074Z,15.20
2024-01-09T09:09:45.056Z,15.30
2024-01-09T09:14:46.841Z,15.30
2024-01-09T09:19:48.841Z,15.30
2024-01-09T09:24:51.255Z,15.30
2024-01-09T09:29:54.078Z,15.40
2024-01-09T09:34:55.886Z,15.40
2024-01-09T09:39:57.755Z,15.50
2024-01-09T09:45:02.215Z,15.50
2024-01-09T09:50:05.657Z,15.60
2024-01-09T09:55:09.425Z,15.70
2024-01-09T10:00:11.729Z,15.70
2024-01-09T10:05:20.138Z,15.80
2024-01-09T10:10:22.165Z,15.80
2024-01-09T10:15:24.075Z,15.80
2024-01-09T10:20:31.225Z,15.90
2024-01-09T10:25:33.382Z,15.90
2024-01-09T10:30:35.167Z,16.00
2024-01-09T10:35:38.258Z,16.00
2024-01-09T10:40:40.130Z,16.00
2024-01-09T10:45:41.994Z,16.10
2024-01-09T10:50:43.992Z,16.10
2024-01-09T10:55:47.730Z,16.00
2024-01-09T11:00:49.527Z,15.90
2024-01-09T11:06:00.541Z,15.90
2024-01-09T11:11:09.981Z,15.90
2024-01-09T11:16:12.760Z,16.00
2024-01-09T11:21:14.739Z,16.00
2024-01-09T11:26:16.846Z,16.10
2024-01-09T11:31:23.157Z,16.00
2024-01-09T11:36:27.880Z,16.00
2024-01-09T11:41:35.436Z,16.10
2024-01-09T11:46:39.181Z,16.20
2024-01-09T11:51:41.251Z,16.20
2024-01-09T11:56:43.183Z,16.30
2024-01-09T12:01:47.297Z,16.40
2024-01-09T12:06:49.350Z,16.40
2024-01-09T12:11:51.329Z,16.50
2024-01-09T12:16:53.488Z,16.50
2024-01-09T12:21:55.984Z,16.60
2024-01-09T12:26:58.106Z,16.70
2024-01-09T12:31:59.956Z,16.70
2024-01-09T12:37:06.510Z,16.60
2024-01-09T12:42:16.251Z,16.70
2024-01-09T12:47:18.526Z,16.60
2024-01-09T12:52:21.898Z,16.60
2024-01-09T12:57:24.105Z,16.60
2024-01-09T13:02:26.359Z,16.70
2024-01-09T13:07:28.573Z,16.70
2024-01-09T13:12:30.468Z,16.60
2024-01-09T13:17:32.561Z,16.60
2024-01-09T13:23:46.635Z,16.60
2024-01-09T13:27:57.918Z,16.60
2024-01-09T13:33:01.514Z,16.50
2024-01-09T13:38:07.984Z,16.50
2024-01-09T13:43:09.837Z,16.60
2024-01-09T13:48:13.577Z,16.50
2024-01-09T13:53:19.149Z,16.50
2024-01-09T13:58:21.108Z,16.40
2024-01-09T14:03:23.312Z,16.40
2024-01-09T14:08:25.236Z,16.30
2024-01-09T14:13:27.096Z,16.30
2024-01-09T14:18:29.300Z,16.20
2024-01-09T14:23:31.129Z,16.20
2024-01-09T14:28:33.119Z,16.30
2024-01-09T14:33:35.057Z,16.20
2024-01-09T14:38:36.929Z,16.20
2024-01-09T14:43:42.375Z,16.10
2024-01-09T14:48:44.989Z,16.10
2024-01-09T14:53:47.280Z,16.20
2024-01-09T14:58:49.207Z,16.10
2024-01-09T15:03:52.009Z,16.10
2024-01-09T15:08:57.842Z,16.20
2024-01-09T15:13:59.708Z,16.10
2024-01-09T15:19:01.575Z,16.10
2024-01-09T15:24:04.840Z,16.20
2024-01-09T15:29:09.049Z,16.20
2024-01-09T15:34:11.146Z,16.10
2024-01-09T15:39:13.234Z,16.20
2024-01-09T15:44:15.065Z,16.20
2024-01-09T15:49:17.241Z,16.20
2024-01-09T15:54:20.712Z,16.20
2024-01-09T15:59:22.513Z,16.20
2024-01-09T16:04:24.278Z,16.20
2024-01-09T16:09:26.212Z,16.20
2024-01-09T16:14:27.991Z,16.20
2024-01-09T16:19:29.832Z,16.20
2024-01-09T16:24:31.698Z,16.20
2024-01-09T16:29:33.676Z,16.20
2024-01-09T16:34:35.581Z,16.20
2024-01-09T16:39:37.612Z,16.20
2024-01-09T16:44:39.331Z,16.20
2024-01-09T16:49:43.320Z,16.30
2024-01-09T16:54:45.627Z,16.20
2024-01-09T16:59:47.733Z,16.20
2024-01-09T17:04:50.266Z,16.20
2024-01-09T17:09:52.103Z,16.20
2024-01-09T17:14:54.021Z,16.20
2024-01-09T17:19:55.841Z,16.20
2024-01-09T17:24:57.693Z,16.20
2024-01-09T17:29:59.582Z,16.20
2024-01-09T17:35:02.052Z,16.20
2024-01-09T17:40:04.396Z,16.20
2024-01-09T17:45:06.919Z,16.20
2024-01-09T17:50:09.513Z,16.20
2024-01-09T17:55:11.461Z,16.20
2024-01-09T18:00:14.195Z,16.20
2024-01-09T18:05:16.785Z,16.20
2024-01-09T18:10:19.040Z,16.20
2024-01-09T18:15:21.876Z,16.20
2024-01-09T18:20:23.675Z,16.30
2024-01-09T18:25:25.440Z,16.20
2024-01-09T18:30:27.438Z,16.10
2024-01-09T18:35:29.584Z,16.10
2024-01-09T18:40:32.044Z,16.10
2024-01-09T18:45:33.981Z,16.10
2024-01-09T18:50:36.075Z,16.10
2024-01-09T18:55:37.908Z,16.10
2024-01-09T19:00:40.126Z,16.10
2024-01-09T19:05:42.310Z,16.10
2024-01-09T19:10:44.418Z,16.10
2024-01-09T19:15:46.283Z,16.10
2024-01-09T19:20:48.080Z,16.00
2024-01-09T19:25:49.888Z,16.10
2024-01-09T19:30:51.873Z,16.10
2024-01-09T19:35:53.661Z,16.10
2024-01-09T19:40:55.518Z,16.10
2024-01-09T19:45:57.325Z,16.10
2024-01-09T19:50:59.025Z,16.10
2024-01-09T19:56:01.768Z,16.00
2024-01-09T20:01:06.566Z,16.00
2024-01-09T20:06:26.967Z,16.00
2024-01-09T20:11:29.559Z,16.00
2024-01-09T20:16:32.502Z,16.00
2024-01-09T20:21:36.757Z,16.00
2024-01-09T20:26:39.601Z,16.00
2024-01-09T20:31:45.506Z,16.00
2024-01-09T20:36:47.440Z,16.00
2024-01-09T20:41:49.474Z,16.00
2024-01-09T20:46:51.503Z,16.00
2024-01-09T20:51:54.578Z,16.00
2024-01-09T20:56:56.343Z,16.00
2024-01-09T21:01:58.427Z,16.00
2024-01-09T21:07:00.298Z,16.00
2024-01-09T21:12:02.404Z,16.00
2024-01-09T21:17:04.513Z,16.00
2024-01-09T21:22:06.388Z,15.90
2024-01-09T21:27:08.937Z,16.00
2024-01-09T21:32:14.586Z,16.00
2024-01-09T21:37:16.455Z,15.90
2024-01-09T21:42:18.308Z,16.00
2024-01-09T21:47:20.322Z,16.00
2024-01-09T21:52:22.194Z,16.00
2024-01-09T21:57:25.283Z,16.00
2024-01-09T22:02:27.494Z,16.00
2024-01-09T22:07:29.264Z,16.00
2024-01-09T22:12:31.109Z,16.00
2024-01-09T22:17:33.200Z,15.90
2024-01-09T22:22:35.085Z,16.00
2024-01-09T22:27:37.112Z,15.90
2024-01-09T22:32:39.074Z,15.90
2024-01-09T22:37:40.966Z,15.90
2024-01-09T22:42:42.803Z,15.90
2024-01-09T22:47:45.452Z,15.90
2024-01-09T22:52:47.707Z,15.90
2024-01-09T22:57:49.482Z,15.80
2024-01-09T23:02:57.196Z,15.80
2024-01-09T23:07:59.924Z,15.80
2024-01-09T23:13:01.949Z,15.70
2024-01-09T23:18:04.288Z,15.60
2024-01-09T23:23:06.606Z,15.60
2024-01-09T23:28:08.434Z,15.50
2024-01-09T23:33:11.853Z,15.50
2024-01-09T23:38:13.694Z,15.50
2024-01-09T23:43:15.538Z,15.40
2024-01-09T23:48:17.857Z,15.40
2024-01-09T23:53:19.987Z,15.30
2024-01-09T23:58:21.905Z,15.30
